createdAt,value
2023-02-02T00:00:04.389Z,4.53
2023-02-02T00:03:08.999Z,4.47
2023-02-02T00:06:11.750Z,4.45
2023-02-02T00:09:17.264Z,4.46
2023-02-02T00:12:19.730Z,4.40
2023-02-02T00:15:22.371Z,4.38
2023-02-02T00:18:24.972Z,4.27
2023-02-02T00:21:28.564Z,4.19
2023-02-02T00:24:31.162Z,4.16
2023-02-02T00:27:33.875Z,4.13
2023-02-02T00:30:36.500Z,4.14
2023-02-02T00:33:39.163Z,4.08
2023-02-02T00:36:42.496Z,3.99
2023-02-02T00:39:45.209Z,3.84
2023-02-02T00:42:50.470Z,3.74
2023-02-02T00:45:53.050Z,3.67
2023-02-02T00:48:55.667Z,3.65
2023-02-02T00:51:59.168Z,3.63
2023-02-02T00:55:01.641Z,3.72
2023-02-02T00:58:04.950Z,3.79
2023-02-02T01:01:18.526Z,3.78
2023-02-02T01:04:21.318Z,3.75
2023-02-02T01:07:23.863Z,3.79
2023-02-02T01:10:26.826Z,3.82
2023-02-02T01:13:29.946Z,3.82
2023-02-02T01:16:32.751Z,3.80
2023-02-02T01:19:36.892Z,3.79
2023-02-02T01:22:39.385Z,3.77
2023-02-02T01:25:41.925Z,3.84
2023-02-02T01:28:44.698Z,3.87
2023-02-02T01:31:47.674Z,3.92
2023-02-02T01:34:50.262Z,3.96
2023-02-02T01:37:52.802Z,4.00
2023-02-02T01:40:57.343Z,4.03
2023-02-02T01:44:05.581Z,4.03
2023-02-02T01:47:08.538Z,4.04
2023-02-02T01:50:14.916Z,4.01
2023-02-02T01:53:19.824Z,4.04
2023-02-02T01:56:30.757Z,4.04
2023-02-02T01:59:35.094Z,4.02
2023-02-02T02:02:39.845Z,4.02
2023-02-02T02:05:53.766Z,3.99
2023-02-02T02:09:05.827Z,3.99
2023-02-02T02:12:16.055Z,3.92
2023-02-02T02:15:38.740Z,3.86
2023-02-02T02:18:51.367Z,3.84
2023-02-02T02:22:28.808Z,3.82
2023-02-02T02:25:55.608Z,3.82
2023-02-02T02:29:32.633Z,3.79
2023-02-02T02:32:49.396Z,3.87
2023-02-02T02:36:17.896Z,3.87
2023-02-02T02:39:41.655Z,3.82
2023-02-02T02:42:49.721Z,3.88
2023-02-02T02:45:52.948Z,3.79
2023-02-02T02:48:58.629Z,3.79
2023-02-02T02:52:01.302Z,3.77
2023-02-02T02:55:12.680Z,3.81
2023-02-02T02:58:24.442Z,3.77
2023-02-02T03:02:01.470Z,3.76
2023-02-02T03:05:37.781Z,3.73
2023-02-02T03:08:48.208Z,3.74
2023-02-02T03:11:50.809Z,3.80
2023-02-02T03:14:53.262Z,3.76
2023-02-02T03:17:55.808Z,3.78
2023-02-02T03:20:59.084Z,3.75
2023-02-02T03:24:01.892Z,3.74
2023-02-02T03:27:04.568Z,3.76
2023-02-02T03:30:12.431Z,3.78
2023-02-02T03:33:15.898Z,3.82
2023-02-02T03:36:18.377Z,3.77
2023-02-02T03:39:20.893Z,3.71
2023-02-02T03:42:24.577Z,3.67
2023-02-02T03:45:28.547Z,3.65
2023-02-02T03:48:32.083Z,3.55
2023-02-02T03:51:34.568Z,3.51
2023-02-02T03:54:37.036Z,3.46
2023-02-02T03:57:39.573Z,3.40
2023-02-02T04:00:42.146Z,3.42
2023-02-02T04:03:46.377Z,3.33
2023-02-02T04:06:48.858Z,3.20
2023-02-02T04:09:52.063Z,3.23
2023-02-02T04:12:54.652Z,3.18
2023-02-02T04:16:01.479Z,3.19
2023-02-02T04:19:04.926Z,3.04
2023-02-02T04:22:07.672Z,3.19
2023-02-02T04:25:10.110Z,3.23
2023-02-02T04:28:12.637Z,3.07
2023-02-02T04:31:15.316Z,2.92
2023-02-02T04:34:18.014Z,2.79
2023-02-02T04:37:20.559Z,2.73
2023-02-02T04:40:23.405Z,2.76
2023-02-02T04:43:25.857Z,2.64
2023-02-02T04:46:28.702Z,2.60
2023-02-02T04:49:31.855Z,2.66
2023-02-02T04:52:35.237Z,2.64
2023-02-02T04:55:38.931Z,2.52
2023-02-02T04:58:42.787Z,2.49
2023-02-02T05:01:45.980Z,2.42
2023-02-02T05:04:48.453Z,2.54
2023-02-02T05:07:50.992Z,2.66
2023-02-02T05:10:53.584Z,2.93
2023-02-02T05:13:56.004Z,3.11
2023-02-02T05:16:58.636Z,3.18
2023-02-02T05:20:01.208Z,3.35
2023-02-02T05:23:03.756Z,3.42
2023-02-02T05:26:06.308Z,3.47
2023-02-02T05:29:09.444Z,3.51
2023-02-02T05:32:11.943Z,3.47
2023-02-02T05:35:14.541Z,3.42
2023-02-02T05:38:17.369Z,3.32
2023-02-02T05:41:20.209Z,3.26
2023-02-02T05:44:22.743Z,3.36
2023-02-02T05:47:25.278Z,3.23
2023-02-02T05:50:27.786Z,3.19
2023-02-02T05:53:37.789Z,3.18
2023-02-02T05:56:40.286Z,3.10
2023-02-02T05:59:42.790Z,3.12
2023-02-02T06:02:45.395Z,3.06
2023-02-02T06:05:48.089Z,2.95
2023-02-02T06:08:50.785Z,2.95
2023-02-02T06:11:53.354Z,3.02
2023-02-02T06:14:55.951Z,2.97
2023-02-02T06:17:58.935Z,2.96
2023-02-02T06:21:03.061Z,2.99
2023-02-02T06:24:05.911Z,2.96
2023-02-02T06:27:08.458Z,2.90
2023-02-02T06:30:11.684Z,2.75
2023-02-02T06:33:14.312Z,2.63
2023-02-02T06:36:16.925Z,2.81
2023-02-02T06:39:20.794Z,2.80
2023-02-02T06:42:23.329Z,2.72
2023-02-02T06:45:27.044Z,2.69
2023-02-02T06:48:29.585Z,2.77
2023-02-02T06:51:32.087Z,2.67
2023-02-02T06:54:34.607Z,2.93
2023-02-02T06:57:37.090Z,3.02
2023-02-02T07:00:39.682Z,3.01
2023-02-02T07:03:42.499Z,3.10
2023-02-02T07:06:45.341Z,3.28
2023-02-02T07:09:48.132Z,3.21
2023-02-02T07:13:00.970Z,3.45
2023-02-02T07:16:09.480Z,3.52
2023-02-02T07:19:12.054Z,3.39
2023-02-02T07:22:16.101Z,3.45
2023-02-02T07:25:18.724Z,3.54
2023-02-02T07:28:28.551Z,3.70
2023-02-02T07:31:36.012Z,3.82
2023-02-02T07:34:42.800Z,4.03
2023-02-02T07:37:51.651Z,4.32
2023-02-02T07:40:54.158Z,4.47
2023-02-02T07:43:56.871Z,4.59
2023-02-02T07:46:59.336Z,4.66
2023-02-02T07:50:02.179Z,4.79
2023-02-02T07:53:04.946Z,4.75
2023-02-02T07:56:10.574Z,4.81
2023-02-02T07:59:13.285Z,4.88
2023-02-02T08:02:16.551Z,4.99
2023-02-02T08:05:19.693Z,5.15
2023-02-02T08:08:22.304Z,5.34
2023-02-02T08:11:26.666Z,5.43
2023-02-02T08:14:29.551Z,5.65
2023-02-02T08:17:32.100Z,5.66
2023-02-02T08:20:34.705Z,5.78
2023-02-02T08:23:39.222Z,5.86
2023-02-02T08:26:41.850Z,5.88
2023-02-02T08:29:44.469Z,5.93
2023-02-02T08:32:47.189Z,5.99
2023-02-02T08:35:49.724Z,6.28
2023-02-02T08:38:52.767Z,6.23
2023-02-02T08:41:56.637Z,6.52
2023-02-02T08:46:02.150Z,6.16
2023-02-02T08:48:21.909Z,6.26
2023-02-02T08:51:24.486Z,6.47
2023-02-02T08:54:27.362Z,6.18
2023-02-02T08:57:32.671Z,6.29
2023-02-02T09:00:35.252Z,6.16
2023-02-02T09:03:40.368Z,6.05
2023-02-02T09:06:43.521Z,6.07
2023-02-02T09:09:46.016Z,6.15
2023-02-02T09:12:48.550Z,6.18
2023-02-02T09:15:51.060Z,6.12
2023-02-02T09:18:54.507Z,6.20
2023-02-02T09:21:57.160Z,6.29
2023-02-02T09:24:59.689Z,6.28
2023-02-02T09:28:02.212Z,6.31
2023-02-02T09:31:05.027Z,6.58
2023-02-02T09:34:10.509Z,6.76
2023-02-02T09:37:13.017Z,6.80
2023-02-02T09:40:19.382Z,6.86
2023-02-02T09:44:00.652Z,7.21
2023-02-02T09:47:21.295Z,7.33
2023-02-02T09:50:55.722Z,7.30
2023-02-02T09:54:05.158Z,7.33
2023-02-02T09:57:16.938Z,7.06
2023-02-02T10:00:25.739Z,6.92
2023-02-02T10:03:39.774Z,7.17
2023-02-02T10:06:54.213Z,7.27
2023-02-02T10:10:06.258Z,7.23
2023-02-02T10:13:20.626Z,7.45
2023-02-02T10:16:24.535Z,7.28
2023-02-02T10:19:29.360Z,7.33
2023-02-02T10:22:34.332Z,7.32
2023-02-02T10:25:41.396Z,7.36
2023-02-02T10:29:06.940Z,7.32
2023-02-02T10:32:35.592Z,7.51
2023-02-02T10:36:02.258Z,7.19
2023-02-02T10:39:18.141Z,6.98
2023-02-02T10:42:42.184Z,6.60
2023-02-02T10:45:47.943Z,6.66
2023-02-02T10:49:09.023Z,6.81
2023-02-02T10:52:11.491Z,7.12
2023-02-02T10:55:32.805Z,7.06
2023-02-02T10:58:52.780Z,7.15
2023-02-02T11:01:55.451Z,7.41
2023-02-02T11:05:17.368Z,6.98
2023-02-02T11:08:23.063Z,6.97
2023-02-02T11:11:37.429Z,7.11
2023-02-02T11:15:21.180Z,7.31
2023-02-02T11:18:31.011Z,7.26
2023-02-02T11:21:35.263Z,7.03
2023-02-02T11:24:49.681Z,6.80
2023-02-02T11:27:52.841Z,6.77
2023-02-02T11:30:55.655Z,6.60
2023-02-02T11:34:21.860Z,6.55
2023-02-02T11:37:25.069Z,6.56
2023-02-02T11:40:38.267Z,6.45
2023-02-02T11:43:52.827Z,6.44
2023-02-02T11:46:57.510Z,6.43
2023-02-02T11:50:04.738Z,6.42
2023-02-02T11:53:30.821Z,6.45
2023-02-02T11:56:36.820Z,6.39
2023-02-02T11:59:42.092Z,6.29
2023-02-02T12:02:49.512Z,6.36
2023-02-02T12:05:52.397Z,6.40
2023-02-02T12:09:01.444Z,6.29
2023-02-02T12:12:25.680Z,6.30
2023-02-02T12:16:09.587Z,6.23
2023-02-02T12:19:43.329Z,6.34
2023-02-02T12:23:03.666Z,6.33
2023-02-02T12:26:19.726Z,6.33
2023-02-02T12:29:31.089Z,6.34
2023-02-02T12:32:48.114Z,6.34
2023-02-02T12:35:56.826Z,6.34
2023-02-02T12:39:38.410Z,6.38
2023-02-02T12:43:21.505Z,6.39
2023-02-02T12:46:33.981Z,6.39
2023-02-02T12:50:02.897Z,6.48
2023-02-02T12:53:27.117Z,6.50
2023-02-02T12:56:49.136Z,6.45
2023-02-02T13:00:34.805Z,6.48
2023-02-02T13:04:01.003Z,6.44
2023-02-02T13:07:30.643Z,6.44
2023-02-02T13:10:43.793Z,6.41
2023-02-02T13:13:47.140Z,6.43
2023-02-02T13:16:54.550Z,6.42
2023-02-02T13:20:04.556Z,6.42
2023-02-02T13:23:18.037Z,6.43
2023-02-02T13:26:27.099Z,6.42
2023-02-02T13:29:48.103Z,6.49
2023-02-02T13:32:53.602Z,6.54
2023-02-02T13:36:02.515Z,6.60
2023-02-02T13:39:16.333Z,6.52
2023-02-02T13:42:43.621Z,6.44
2023-02-02T13:46:30.454Z,6.39
2023-02-02T13:49:41.201Z,6.35
2023-02-02T13:53:23.969Z,6.39
2023-02-02T13:57:03.173Z,6.40
2023-02-02T14:00:33.561Z,6.43
2023-02-02T14:03:41.923Z,6.43
2023-02-02T14:07:07.032Z,6.44
2023-02-02T14:10:28.217Z,6.37
2023-02-02T14:14:05.126Z,6.42
2023-02-02T14:17:13.628Z,6.31
2023-02-02T14:21:04.443Z,6.22
2023-02-02T14:24:28.589Z,6.24
2023-02-02T14:27:31.117Z,6.25
2023-02-02T14:30:38.550Z,6.21
2023-02-02T14:33:47.620Z,6.21
2023-02-02T14:36:59.822Z,6.20
2023-02-02T14:40:16.461Z,6.21
2023-02-02T14:43:46.466Z,6.19
2023-02-02T14:46:49.395Z,6.16
2023-02-02T14:49:57.705Z,6.20
2023-02-02T14:53:06.888Z,6.33
2023-02-02T14:56:17.451Z,6.70
2023-02-02T14:59:24.924Z,7.00
2023-02-02T15:02:36.796Z,7.24
2023-02-02T15:05:46.119Z,7.26
2023-02-02T15:09:23.481Z,7.02
2023-02-02T15:12:44.731Z,6.85
2023-02-02T15:15:53.430Z,6.52
2023-02-02T15:19:21.210Z,6.31
2023-02-02T15:22:32.426Z,6.17
2023-02-02T15:26:00.922Z,6.02
2023-02-02T15:29:13.718Z,6.02
2023-02-02T15:32:22.407Z,5.88
2023-02-02T15:35:30.487Z,5.83
2023-02-02T15:38:40.121Z,5.78
2023-02-02T15:41:44.235Z,5.77
2023-02-02T15:44:46.793Z,5.68
2023-02-02T15:47:49.465Z,5.64
2023-02-02T15:50:56.989Z,5.64
2023-02-02T15:53:59.589Z,5.65
2023-02-02T15:57:03.472Z,5.62
2023-02-02T16:00:24.895Z,5.58
2023-02-02T16:03:37.280Z,5.57
2023-02-02T16:06:40.548Z,5.54
2023-02-02T16:09:44.294Z,5.49
2023-02-02T16:12:48.325Z,5.51
2023-02-02T16:15:59.103Z,5.53
2023-02-02T16:19:09.219Z,5.52
2023-02-02T16:22:18.329Z,5.45
2023-02-02T16:25:24.140Z,5.41
2023-02-02T16:28:27.561Z,5.38
2023-02-02T16:31:31.541Z,5.42
2023-02-02T16:34:40.344Z,5.42
2023-02-02T16:37:43.133Z,5.40
2023-02-02T16:40:45.661Z,5.38
2023-02-02T16:43:48.389Z,5.36
2023-02-02T16:46:51.090Z,5.40
2023-02-02T16:50:08.673Z,5.37
2023-02-02T16:53:22.738Z,5.41
2023-02-02T16:56:43.740Z,5.42
2023-02-02T16:59:51.144Z,5.42
2023-02-02T17:03:04.806Z,5.43
2023-02-02T17:06:08.091Z,5.40
2023-02-02T17:09:32.444Z,5.36
2023-02-02T17:12:37.484Z,5.40
2023-02-02T17:15:40.619Z,5.43
2023-02-02T17:18:43.593Z,5.38
2023-02-02T17:21:49.500Z,5.34
2023-02-02T17:24:52.852Z,5.28
2023-02-02T17:27:58.628Z,5.26
2023-02-02T17:31:05.869Z,5.19
2023-02-02T17:34:12.161Z,5.04
2023-02-02T17:37:15.544Z,4.99
2023-02-02T17:40:19.910Z,4.91
2023-02-02T17:43:22.556Z,4.86
2023-02-02T17:46:28.420Z,4.79
2023-02-02T17:49:31.302Z,4.69
2023-02-02T17:52:34.391Z,4.59
2023-02-02T17:55:45.119Z,4.55
2023-02-02T17:58:47.689Z,4.63
2023-02-02T18:01:54.332Z,4.60
2023-02-02T18:04:57.926Z,4.50
2023-02-02T18:08:00.994Z,4.53
2023-02-02T18:11:04.003Z,4.44
2023-02-02T18:14:06.544Z,4.36
2023-02-02T18:17:09.161Z,4.27
2023-02-02T18:20:16.665Z,4.20
2023-02-02T18:23:19.676Z,4.06
2023-02-02T18:26:23.337Z,4.06
2023-02-02T18:29:26.336Z,4.13
2023-02-02T18:32:29.105Z,4.16
2023-02-02T18:35:31.826Z,4.17
2023-02-02T18:38:35.358Z,4.28
2023-02-02T18:41:38.139Z,4.24
2023-02-02T18:44:40.941Z,4.15
2023-02-02T18:47:43.646Z,4.03
2023-02-02T18:50:46.152Z,4.00
2023-02-02T18:53:49.404Z,3.99
2023-02-02T18:56:52.056Z,3.93
2023-02-02T18:59:54.769Z,3.91
2023-02-02T19:02:57.996Z,3.79
2023-02-02T19:06:19.271Z,3.76
2023-02-02T19:09:22.352Z,3.77
2023-02-02T19:12:28.495Z,3.71
2023-02-02T19:15:37.174Z,3.79
2023-02-02T19:18:39.812Z,3.82
2023-02-02T19:21:43.576Z,4.02
2023-02-02T19:24:47.139Z,3.97
2023-02-02T19:27:49.890Z,3.96
2023-02-02T19:30:55.887Z,3.99
2023-02-02T19:34:01.164Z,3.98
2023-02-02T19:37:31.302Z,3.91
2023-02-02T19:40:34.290Z,3.91
2023-02-02T19:43:37.143Z,3.90
2023-02-02T19:46:43.993Z,3.92
2023-02-02T19:49:47.089Z,3.93
2023-02-02T19:52:50.898Z,3.90
2023-02-02T19:55:53.907Z,3.88
2023-02-02T19:58:56.698Z,3.85
2023-02-02T20:02:22.036Z,3.79
2023-02-02T20:05:32.788Z,3.73
2023-02-02T20:08:43.747Z,3.74
2023-02-02T20:11:51.413Z,3.69
2023-02-02T20:14:54.706Z,3.58
2023-02-02T20:18:00.662Z,3.62
2023-02-02T20:21:07.710Z,3.59
2023-02-02T20:24:31.308Z,3.44
2023-02-02T20:27:34.778Z,3.29
2023-02-02T20:30:37.336Z,3.16
2023-02-02T20:33:48.551Z,3.14
2023-02-02T20:36:53.091Z,3.10
2023-02-02T20:40:01.644Z,3.17
2023-02-02T20:43:04.925Z,3.29
2023-02-02T20:46:09.275Z,3.15
2023-02-02T20:49:13.767Z,3.26
2023-02-02T20:52:23.417Z,3.13
2023-02-02T20:55:27.201Z,2.99
2023-02-02T20:58:30.494Z,3.00
2023-02-02T21:01:33.448Z,2.85
2023-02-02T21:04:36.868Z,2.68
2023-02-02T21:07:39.607Z,2.77
2023-02-02T21:10:42.254Z,2.61
2023-02-02T21:13:45.388Z,2.73
2023-02-02T21:16:48.140Z,2.78
2023-02-02T21:19:51.681Z,2.77
2023-02-02T21:22:56.145Z,2.84
2023-02-02T21:25:58.679Z,2.82
2023-02-02T21:29:01.200Z,2.79
2023-02-02T21:32:04.089Z,2.88
2023-02-02T21:35:06.960Z,2.96
2023-02-02T21:38:15.228Z,3.03
2023-02-02T21:41:17.916Z,2.86
2023-02-02T21:44:22.561Z,2.87
2023-02-02T21:47:46.352Z,2.65
2023-02-02T21:50:49.019Z,2.53
2023-02-02T21:53:52.122Z,2.69
2023-02-02T21:56:55.414Z,2.74
2023-02-02T21:59:58.010Z,2.80
2023-02-02T22:03:00.740Z,3.04
2023-02-02T22:06:21.258Z,3.04
2023-02-02T22:09:26.918Z,3.00
2023-02-02T22:12:30.081Z,3.03
2023-02-02T22:15:34.545Z,3.14
2023-02-02T22:18:37.081Z,3.24
2023-02-02T22:21:39.538Z,3.18
2023-02-02T22:25:00.037Z,3.15
2023-02-02T22:28:17.129Z,3.16
2023-02-02T22:31:19.912Z,3.04
2023-02-02T22:34:22.711Z,3.02
2023-02-02T22:37:25.507Z,3.05
2023-02-02T22:40:29.154Z,3.00
2023-02-02T22:43:31.953Z,3.01
2023-02-02T22:46:34.580Z,3.08
2023-02-02T22:49:37.064Z,3.06
2023-02-02T22:52:39.836Z,3.04
2023-02-02T22:55:43.495Z,2.92
2023-02-02T22:58:46.794Z,2.86
2023-02-02T23:01:49.347Z,2.75
2023-02-02T23:04:51.895Z,2.75
2023-02-02T23:07:55.371Z,2.69
2023-02-02T23:10:57.885Z,2.66
2023-02-02T23:14:00.339Z,2.60
2023-02-02T23:17:02.864Z,2.52
2023-02-02T23:20:07.945Z,2.44
2023-02-02T23:23:10.564Z,2.43
2023-02-02T23:26:13.328Z,2.43
2023-02-02T23:29:16.311Z,2.61
2023-02-02T23:32:19.313Z,2.62
2023-02-02T23:35:21.786Z,2.64
2023-02-02T23:38:24.304Z,2.62
2023-02-02T23:41:27.174Z,2.62
2023-02-02T23:44:29.697Z,2.47
2023-02-02T23:47:34.361Z,2.37
2023-02-02T23:50:40.045Z,2.52
2023-02-02T23:53:43.053Z,2.46
2023-02-02T23:56:45.637Z,2.41
2023-02-02T23:59:48.143Z,2.34
